createdAt,value
2024-02-29T00:01:45.488Z,12.93
2024-02-29T00:05:47.216Z,11.25
2024-02-29T00:09:48.828Z,11.05
2024-02-29T00:13:50.530Z,12.05
2024-02-29T00:17:52.366Z,11.95
2024-02-29T00:21:54.113Z,12.68
2024-02-29T00:25:55.606Z,14.85
2024-02-29T00:29:57.285Z,11.23
2024-02-29T00:33:58.900Z,10.93
2024-02-29T00:38:00.557Z,10.85
2024-02-29T00:42:02.056Z,15.40
2024-02-29T00:46:03.954Z,12.15
2024-02-29T00:50:06.069Z,12.77
2024-02-29T00:54:07.643Z,15.85
2024-02-29T00:58:09.283Z,12.48
2024-02-29T01:02:10.848Z,14.20
2024-02-29T01:06:12.673Z,17.05
2024-02-29T01:10:14.803Z,14.63
2024-02-29T01:14:16.390Z,14.05
2024-02-29T01:18:18.026Z,15.85
2024-02-29T01:22:19.651Z,12.85
2024-02-29T01:26:21.214Z,17.33
2024-02-29T01:30:22.735Z,15.30
2024-02-29T01:34:24.339Z,14.50
2024-02-29T01:38:25.909Z,13.43
2024-02-29T01:42:27.486Z,14.95
2024-02-29T01:46:29.188Z,13.55
2024-02-29T01:50:31.730Z,13.93
2024-02-29T01:54:33.439Z,14.07
2024-02-29T01:58:36.283Z,15.10
2024-02-29T02:02:39.669Z,12.63
2024-02-29T02:06:41.731Z,11.80
2024-02-29T02:10:43.322Z,13.27
2024-02-29T02:14:45.149Z,12.98
2024-02-29T02:18:46.723Z,12.60
2024-02-29T02:22:48.317Z,11.35
2024-02-29T02:26:49.887Z,11.10
2024-02-29T02:30:51.479Z,11.73
2024-02-29T02:34:53.002Z,11.27
2024-02-29T02:38:54.590Z,10.25
2024-02-29T02:42:56.507Z,10.00
2024-02-29T02:46:58.080Z,12.30
2024-02-29T02:50:59.673Z,11.07
2024-02-29T02:55:01.519Z,10.70
2024-02-29T02:59:03.096Z,9.77
2024-02-29T03:03:04.988Z,9.45
2024-02-29T03:07:06.546Z,11.18
2024-02-29T03:11:08.304Z,9.55
2024-02-29T03:15:10.219Z,11.75
2024-02-29T03:19:11.819Z,10.85
2024-02-29T03:23:13.352Z,9.98
2024-02-29T03:27:15.078Z,10.95
2024-02-29T03:31:16.692Z,12.35
2024-02-29T03:35:18.448Z,9.50
2024-02-29T03:39:20.046Z,10.70
2024-02-29T03:43:21.608Z,10.48
2024-02-29T03:47:23.133Z,10.15
2024-02-29T03:55:30.231Z,8.50
2024-02-29T03:59:32.600Z,10.45
2024-02-29T04:03:34.130Z,9.75
2024-02-29T04:07:39.338Z,10.57
2024-02-29T04:11:40.953Z,10.20
2024-02-29T04:15:42.572Z,10.57
2024-02-29T04:19:44.730Z,10.90
2024-02-29T04:23:46.280Z,8.38
2024-02-29T04:27:47.861Z,8.70
2024-02-29T04:31:49.501Z,8.93
2024-02-29T04:35:51.023Z,9.55
2024-02-29T04:39:52.882Z,9.27
2024-02-29T04:43:54.509Z,9.82
2024-02-29T04:47:56.624Z,9.30
2024-02-29T04:51:58.230Z,9.25
2024-02-29T04:56:01.011Z,8.55
2024-02-29T05:00:02.594Z,9.13
2024-02-29T05:04:04.778Z,8.73
2024-02-29T05:08:06.334Z,8.65
2024-02-29T05:12:08.163Z,7.68
2024-02-29T05:16:09.664Z,7.95
2024-02-29T05:20:11.644Z,7.97
2024-02-29T05:24:13.257Z,8.48
2024-02-29T05:28:15.003Z,10.25
2024-02-29T05:32:18.758Z,9.80
2024-02-29T05:36:20.724Z,8.88
2024-02-29T05:40:22.476Z,8.30
2024-02-29T05:44:24.160Z,8.75
2024-02-29T05:48:25.909Z,9.45
2024-02-29T05:52:27.451Z,10.75
2024-02-29T05:56:29.135Z,8.30
2024-02-29T06:00:30.703Z,10.63
2024-02-29T06:04:32.189Z,9.85
2024-02-29T06:08:33.759Z,8.35
2024-02-29T06:12:35.596Z,9.27
2024-02-29T06:16:37.347Z,8.88
2024-02-29T06:20:38.862Z,9.00
2024-02-29T06:24:40.391Z,7.40
2024-02-29T06:28:42.238Z,8.80
2024-02-29T06:32:45.730Z,9.35
2024-02-29T06:36:47.359Z,9.60
2024-02-29T06:40:49.105Z,8.77
2024-02-29T06:44:52.637Z,10.30
2024-02-29T06:48:54.195Z,10.05
2024-02-29T06:52:56.040Z,8.68
2024-02-29T06:56:57.706Z,9.85
2024-02-29T07:00:59.433Z,9.07
2024-02-29T07:05:01.047Z,9.07
2024-02-29T07:09:02.719Z,9.25
2024-02-29T07:13:04.551Z,9.90
2024-02-29T07:17:06.908Z,9.55
2024-02-29T07:21:08.431Z,10.15
2024-02-29T07:25:10.278Z,9.65
2024-02-29T07:29:12.759Z,8.30
2024-02-29T07:33:14.341Z,9.55
2024-02-29T07:37:16.041Z,9.88
2024-02-29T07:41:17.629Z,10.45
2024-02-29T07:45:21.071Z,10.52
2024-02-29T07:49:23.064Z,8.82
2024-02-29T07:53:24.682Z,8.95
2024-02-29T07:57:26.158Z,9.75
2024-02-29T08:01:28.520Z,9.20
2024-02-29T08:05:30.286Z,8.50
2024-02-29T08:09:31.835Z,10.20
2024-02-29T08:13:33.318Z,9.93
2024-02-29T08:17:34.843Z,8.75
2024-02-29T08:21:40.073Z,8.90
2024-02-29T08:25:42.520Z,9.00
2024-02-29T08:29:44.059Z,9.98
2024-02-29T08:33:45.603Z,10.65
2024-02-29T08:37:47.177Z,10.02
2024-02-29T08:41:48.784Z,9.35
2024-02-29T08:45:53.208Z,10.27
2024-02-29T08:49:54.915Z,9.23
2024-02-29T08:53:56.448Z,10.20
2024-02-29T08:57:58.048Z,9.80
2024-02-29T09:02:00.894Z,10.43
2024-02-29T09:06:02.492Z,11.15
2024-02-29T09:10:04.351Z,9.45
2024-02-29T09:14:05.953Z,10.60
2024-02-29T09:18:08.124Z,9.65
2024-02-29T09:22:10.063Z,10.43
2024-02-29T09:26:14.154Z,10.48
2024-02-29T09:30:15.887Z,10.48
2024-02-29T09:34:17.876Z,10.48
2024-02-29T09:38:19.490Z,10.45
2024-02-29T09:42:21.063Z,11.32
2024-02-29T09:46:22.821Z,12.60
2024-02-29T09:50:24.375Z,10.65
2024-02-29T09:54:27.366Z,10.45
2024-02-29T09:58:30.252Z,11.45
2024-02-29T10:02:33.529Z,10.82
2024-02-29T10:06:35.090Z,9.40
2024-02-29T10:10:36.781Z,10.35
2024-02-29T10:14:38.814Z,9.68
2024-02-29T10:18:40.701Z,8.70
2024-02-29T10:22:43.274Z,9.43
2024-02-29T10:26:45.223Z,9.13
2024-02-29T10:30:55.486Z,8.43
2024-02-29T10:34:57.081Z,6.88
2024-02-29T10:38:59.919Z,6.95
2024-02-29T10:43:03.590Z,9.05
2024-02-29T10:47:08.959Z,8.25
2024-02-29T10:51:45.508Z,8.38
2024-02-29T11:00:01.940Z,9.25
2024-02-29T11:04:05.040Z,8.48
2024-02-29T11:08:07.025Z,8.63
2024-02-29T11:12:10.135Z,7.20
2024-02-29T11:16:14.386Z,9.23
2024-02-29T11:20:22.738Z,8.40
2024-02-29T11:24:24.369Z,7.70
2024-02-29T11:28:42.718Z,8.10
2024-02-29T11:32:44.586Z,9.35
2024-02-29T11:36:48.280Z,8.02
2024-02-29T11:40:50.077Z,8.32
2024-02-29T11:44:51.575Z,7.53
2024-02-29T11:48:56.101Z,8.13
2024-02-29T11:53:02.158Z,7.38
2024-02-29T11:57:05.644Z,8.57
2024-02-29T12:01:07.711Z,8.45
2024-02-29T12:05:10.086Z,7.30
2024-02-29T12:09:13.657Z,7.68
2024-02-29T12:13:15.583Z,7.30
2024-02-29T12:17:19.941Z,7.97
2024-02-29T12:21:21.531Z,7.68
2024-02-29T12:25:23.638Z,8.57
2024-02-29T12:29:25.268Z,8.13
2024-02-29T12:33:29.898Z,7.80
2024-02-29T12:37:31.725Z,8.68
2024-02-29T12:41:33.258Z,9.75
2024-02-29T12:45:34.830Z,8.45
2024-02-29T12:49:36.380Z,8.60
2024-02-29T12:53:38.226Z,9.70
2024-02-29T12:57:39.914Z,8.80
2024-02-29T13:01:42.282Z,8.43
2024-02-29T13:05:44.007Z,8.75
2024-02-29T13:09:45.590Z,8.40
2024-02-29T13:13:47.193Z,9.05
2024-02-29T13:17:48.816Z,9.07
2024-02-29T13:21:50.460Z,8.98
2024-02-29T13:25:52.412Z,8.80
2024-02-29T13:29:56.656Z,11.98
2024-02-29T13:33:59.110Z,9.82
2024-02-29T13:38:00.723Z,9.93
2024-02-29T13:42:06.526Z,8.98
2024-02-29T13:46:08.115Z,8.48
2024-02-29T13:50:10.004Z,8.90
2024-02-29T13:54:12.293Z,8.60
2024-02-29T13:58:14.080Z,8.90
2024-02-29T14:02:15.701Z,8.38
2024-02-29T14:06:17.971Z,9.68
2024-02-29T14:10:19.545Z,9.00
2024-02-29T14:14:21.168Z,10.10
2024-02-29T14:18:22.687Z,8.55
2024-02-29T14:22:24.332Z,9.77
2024-02-29T14:26:25.955Z,9.52
2024-02-29T14:30:27.501Z,9.05
2024-02-29T14:34:29.264Z,9.15
2024-02-29T14:38:30.822Z,9.45
2024-02-29T14:42:32.428Z,9.15
2024-02-29T14:46:34.386Z,10.25
2024-02-29T14:50:35.944Z,8.98
2024-02-29T14:54:37.555Z,9.93
2024-02-29T14:58:39.217Z,9.73
2024-02-29T15:02:41.217Z,10.00
2024-02-29T15:06:45.302Z,9.98
2024-02-29T15:10:47.295Z,12.73
2024-02-29T15:14:48.927Z,10.75
2024-02-29T15:18:50.509Z,9.95
2024-02-29T15:22:52.040Z,9.80
2024-02-29T15:26:59.867Z,9.43
2024-02-29T15:31:01.490Z,9.65
2024-02-29T15:35:03.311Z,8.93
2024-02-29T15:39:04.805Z,10.70
2024-02-29T15:43:06.377Z,11.38
2024-02-29T15:47:07.959Z,9.15
2024-02-29T15:51:09.606Z,10.85
2024-02-29T15:55:11.347Z,9.93
2024-02-29T15:59:14.808Z,10.02
2024-02-29T16:03:16.621Z,9.68
2024-02-29T16:07:18.257Z,10.25
2024-02-29T16:11:23.269Z,8.77
2024-02-29T16:15:28.568Z,11.05
2024-02-29T16:19:30.191Z,9.60
2024-02-29T16:23:31.788Z,9.85
2024-02-29T16:27:33.656Z,9.73
2024-02-29T16:31:35.252Z,8.77
2024-02-29T16:35:36.958Z,9.40
2024-02-29T16:39:38.696Z,9.82
2024-02-29T16:43:40.268Z,10.35
2024-02-29T16:47:41.878Z,9.65
2024-02-29T16:51:43.544Z,7.97
2024-02-29T16:55:45.224Z,10.10
2024-02-29T16:59:46.739Z,8.90
2024-02-29T17:03:49.237Z,8.85
2024-02-29T17:07:50.742Z,8.15
2024-02-29T17:11:52.445Z,8.30
2024-02-29T17:15:54.164Z,7.72
2024-02-29T17:19:56.313Z,7.18
2024-02-29T17:23:57.932Z,8.40
2024-02-29T17:27:59.578Z,6.55
2024-02-29T17:32:01.130Z,7.03
2024-02-29T17:36:02.702Z,6.15
2024-02-29T17:40:04.455Z,6.03
2024-02-29T17:44:06.394Z,6.25
2024-02-29T17:48:07.925Z,5.43
2024-02-29T17:52:09.617Z,11.60
2024-02-29T17:56:13.068Z,7.22
2024-02-29T18:00:15.874Z,5.93
2024-02-29T18:04:17.596Z,5.20
2024-02-29T18:08:19.245Z,5.40
2024-02-29T18:12:20.741Z,5.65
2024-02-29T18:16:22.445Z,5.60
2024-02-29T18:20:24.055Z,6.55
2024-02-29T18:24:25.779Z,7.55
2024-02-29T18:28:27.356Z,5.22
2024-02-29T18:32:29.042Z,5.03
2024-02-29T18:36:30.594Z,6.72
2024-02-29T18:40:32.265Z,6.60
2024-02-29T18:44:34.036Z,6.20
2024-02-29T18:48:36.801Z,7.22
2024-02-29T18:52:40.047Z,6.22
2024-02-29T18:56:42.084Z,8.30
2024-02-29T19:00:43.719Z,9.07
2024-02-29T19:04:45.641Z,8.90
2024-02-29T19:08:47.974Z,7.32
2024-02-29T19:12:49.735Z,6.40
2024-02-29T19:16:53.533Z,6.35
2024-02-29T19:20:55.900Z,7.68
2024-02-29T19:24:58.334Z,6.90
2024-02-29T19:29:00.028Z,6.40
2024-02-29T19:33:01.763Z,7.18
2024-02-29T19:37:03.461Z,8.27
2024-02-29T19:41:05.381Z,6.75
2024-02-29T19:45:09.378Z,6.50
2024-02-29T19:49:10.936Z,6.78
2024-02-29T19:53:12.616Z,6.75
2024-02-29T19:57:14.131Z,7.35
2024-02-29T20:01:15.714Z,7.20
2024-02-29T20:05:17.656Z,7.10
2024-02-29T20:09:19.248Z,7.50
2024-02-29T20:13:20.925Z,7.82
2024-02-29T20:17:22.554Z,7.03
2024-02-29T20:21:24.096Z,7.35
2024-02-29T20:25:30.273Z,6.45
2024-02-29T20:29:31.898Z,6.30
2024-02-29T20:33:33.464Z,7.40
2024-02-29T20:37:35.062Z,7.00
2024-02-29T20:41:36.641Z,13.13
2024-02-29T20:45:38.175Z,6.85
2024-02-29T20:49:39.823Z,6.22
2024-02-29T20:53:41.348Z,7.10
2024-02-29T20:57:44.194Z,6.20
2024-02-29T21:01:46.075Z,6.78
2024-02-29T21:05:47.973Z,7.50
2024-02-29T21:09:49.507Z,7.93
2024-02-29T21:13:51.073Z,6.22
2024-02-29T21:17:54.368Z,6.78
2024-02-29T21:21:56.124Z,6.72
2024-02-29T21:25:57.908Z,7.38
2024-02-29T21:29:59.778Z,6.75
2024-02-29T21:34:01.368Z,6.18
2024-02-29T21:38:03.075Z,6.95
2024-02-29T21:42:05.216Z,7.13
2024-02-29T21:46:08.615Z,7.45
2024-02-29T21:50:10.840Z,7.00
2024-02-29T21:54:12.442Z,5.82
2024-02-29T21:58:14.133Z,6.75
2024-02-29T22:02:15.797Z,8.23
2024-02-29T22:06:17.333Z,6.50
2024-02-29T22:10:19.087Z,7.03
2024-02-29T22:14:20.619Z,5.93
2024-02-29T22:18:22.277Z,6.43
2024-02-29T22:22:23.969Z,5.60
2024-02-29T22:26:25.758Z,7.22
2024-02-29T22:30:27.612Z,7.32
2024-02-29T22:34:29.749Z,5.93
2024-02-29T22:38:31.627Z,8.40
2024-02-29T22:42:33.740Z,7.93
2024-02-29T22:46:35.346Z,6.90
2024-02-29T22:50:36.993Z,6.97
2024-02-29T22:54:38.551Z,6.10
2024-02-29T22:58:40.145Z,6.38
2024-02-29T23:02:42.803Z,6.93
2024-02-29T23:06:44.481Z,6.88
2024-02-29T23:10:46.273Z,6.10
2024-02-29T23:14:48.014Z,6.30
2024-02-29T23:18:49.547Z,4.95
2024-02-29T23:22:53.114Z,7.47
2024-02-29T23:26:54.650Z,6.60
2024-02-29T23:30:56.255Z,5.38
2024-02-29T23:34:57.792Z,6.43
2024-02-29T23:38:59.438Z,6.88
2024-02-29T23:43:01.026Z,8.18
2024-02-29T23:47:02.623Z,6.97
2024-02-29T23:51:04.350Z,7.05
2024-02-29T23:55:06.446Z,7.38
2024-02-29T23:59:08.076Z,6.40
